Time;durP1;ratioP1;P1;durP2;ratioP2;P2;SDS_P1;SDS_P2;PMS_P1;PMS_P2;Temp;Humidity;BMP_temperature;BMP_pressure;BME280_temperature;BME280_humidity;BME280_pressure;Samples;Min_cycle;Max_cycle;Signal;HPM_P1;HPM_P2
2023/08/11 00:02:05;;;;;;;3.08;1.90;;;;;;;25.09;37.28;100178.25;4302744;33;34900;-68
2023/08/11 00:04:33;;;;;;;3.40;1.83;;;;;;;25.09;37.07;100177.41;4277626;33;33893;-68
2023/08/11 00:07:02;;;;;;;4.50;2.10;;;;;;;25.09;37.18;100172.78;4288504;33;33321;-68
2023/08/11 00:09:30;;;;;;;2.42;1.62;;;;;;;25.09;37.37;100166.50;4266122;33;33216;-68
2023/08/11 00:11:57;;;;;;;3.22;1.83;;;;;;;25.08;37.27;100170.25;4289761;33;33904;-68
2023/08/11 00:14:26;;;;;;;3.03;1.67;;;;;;;25.08;37.33;100167.53;4277574;33;34268;-67
2023/08/11 00:16:54;;;;;;;4.62;2.20;;;;;;;25.08;37.31;100173.81;4277515;33;33541;-67
2023/08/11 00:19:21;;;;;;;2.80;1.90;;;;;;;25.07;37.18;100174.88;4265755;33;32754;-68
2023/08/11 00:21:49;;;;;;;3.17;2.00;;;;;;;25.07;37.22;100169.44;4289412;33;33711;-67
2023/08/11 00:24:17;;;;;;;3.33;2.05;;;;;;;25.07;37.17;100172.16;4302527;33;33574;-67
2023/08/11 00:26:45;;;;;;;3.10;1.80;;;;;;;25.07;37.21;100176.75;4302348;33;32959;-67
2023/08/11 00:29:12;;;;;;;4.30;1.90;;;;;;;25.06;37.23;100169.63;4277680;33;34559;-68
2023/08/11 00:31:40;;;;;;;5.93;1.98;;;;;;;25.04;37.20;100169.88;4302275;33;33957;-67
2023/08/11 00:34:08;;;;;;;3.78;1.98;;;;;;;25.04;37.15;100164.41;4302114;33;33841;-67
2023/08/11 00:36:36;;;;;;;4.22;1.90;;;;;;;25.04;37.16;100174.47;4288996;33;32916;-67
2023/08/11 00:39:05;;;;;;;4.00;2.05;;;;;;;25.04;37.13;100163.56;4265775;33;32401;-68
2023/08/11 00:41:33;;;;;;;3.42;1.95;;;;;;;25.03;37.04;100168.19;4265728;33;34051;-68
2023/08/11 00:44:01;;;;;;;5.40;2.20;;;;;;;25.03;37.04;100162.72;4302535;33;33854;-68
2023/08/11 00:46:29;;;;;;;3.83;2.03;;;;;;;25.03;37.10;100167.34;4288834;33;32368;-68
2023/08/11 00:48:58;;;;;;;3.80;2.17;;;;;;;25.02;37.15;100160.22;4277306;33;33908;-68
2023/08/11 00:51:27;;;;;;;3.50;1.92;;;;;;;25.02;37.11;100162.97;4289290;33;34022;-67
2023/08/11 00:53:54;;;;;;;4.85;2.15;;;;;;;25.03;37.08;100157.25;4289000;33;33646;-68
2023/08/11 00:56:22;;;;;;;3.30;2.08;;;;;;;25.02;37.02;100149.31;4277328;33;33402;-67
2023/08/11 00:58:50;;;;;;;3.87;1.90;;;;;;;25.02;36.94;100161.06;4277086;33;33746;-68
2023/08/11 01:01:17;;;;;;;3.35;1.95;;;;;;;25.01;36.96;100156.66;4277081;33;34794;-67
2023/08/11 01:03:47;;;;;;;3.15;1.83;;;;;;;25.00;36.93;100157.75;4288804;33;33745;-67
2023/08/11 01:06:32;;;;;;;3.80;1.87;;;;;;;24.99;36.96;100161.50;4289104;33;34052;-67
2023/08/11 01:09:09;;;;;;;3.92;1.80;;;;;;;24.99;36.88;100161.50;4288805;33;34611;-67
2023/08/11 01:11:41;;;;;;;5.12;2.20;;;;;;;24.99;36.79;100155.22;4303561;33;33500;-67
2023/08/11 01:14:15;;;;;;;3.35;2.12;;;;;;;24.98;36.82;100159.84;4278555;33;32875;-67
2023/08/11 01:16:45;;;;;;;4.70;2.20;;;;;;;24.98;36.96;100151.66;4267347;33;32145;-68
2023/08/11 01:19:13;;;;;;;5.25;2.30;;;;;;;24.98;36.93;100156.28;4279044;33;33824;-67
2023/08/11 01:21:40;;;;;;;3.45;1.80;;;;;;;24.97;36.86;100147.25;4278723;33;33831;-68
2023/08/11 01:24:08;;;;;;;3.97;2.20;;;;;;;24.96;36.86;100148.34;4278664;33;33814;-68
2023/08/11 01:26:36;;;;;;;3.12;2.05;;;;;;;24.96;36.82;100142.88;4302459;33;33670;-67
2023/08/11 01:29:04;;;;;;;4.53;2.00;;;;;;;24.96;36.78;100147.50;4278687;33;34076;-67
2023/08/11 01:31:32;;;;;;;5.68;2.10;;;;;;;24.96;36.88;100144.78;4278570;33;33099;-68
2023/08/11 01:33:59;;;;;;;3.40;2.10;;;;;;;24.96;36.93;100142.88;4290284;33;33728;-68
2023/08/11 01:36:28;;;;;;;5.30;2.45;;;;;;;24.95;36.89;100149.41;4290447;33;33322;-68
2023/08/11 01:38:55;;;;;;;3.42;1.95;;;;;;;24.95;36.87;100152.13;4266885;33;32603;-67
2023/08/11 01:41:23;;;;;;;4.78;2.22;;;;;;;24.95;36.89;100149.41;4290116;33;33105;-67
2023/08/11 01:43:51;;;;;;;4.07;2.30;;;;;;;24.95;36.89;100146.69;4303696;33;34183;-67
2023/08/11 01:46:19;;;;;;;4.28;2.12;;;;;;;24.94;36.82;100147.72;4261103;33;32173;-67
2023/08/11 01:48:47;;;;;;;4.25;2.42;;;;;;;24.94;36.67;100153.16;4252349;33;33629;-68
2023/08/11 01:51:14;;;;;;;3.58;1.90;;;;;;;24.93;36.65;100156.97;4264338;33;34531;-68
2023/08/11 01:53:42;;;;;;;5.80;2.55;;;;;;;24.93;36.56;100152.34;4276010;33;33801;-67
2023/08/11 01:56:10;;;;;;;3.80;2.10;;;;;;;24.92;36.58;100153.41;4252427;33;33902;-67
2023/08/11 01:58:38;;;;;;;4.82;2.28;;;;;;;24.91;36.53;100146.28;4264216;33;33994;-67
2023/08/11 02:01:05;;;;;;;4.82;2.28;;;;;;;24.91;36.47;100154.47;4264316;33;34067;-67
2023/08/11 02:03:33;;;;;;;3.67;2.17;;;;;;;24.91;36.48;100153.66;4264189;33;33230;-67
2023/08/11 02:06:03;;;;;;;;;;;;;;;24.91;36.50;100156.38;4253252;33;32127;-68
2023/08/11 02:08:32;;;;;;;3.60;2.15;;;;;;;25.03;36.31;100165.44;4289155;33;34571;-68
2023/08/11 02:11:00;;;;;;;4.28;2.22;;;;;;;24.92;36.50;100161.59;4252291;33;33012;-68
2023/08/11 02:13:28;;;;;;;3.72;2.05;;;;;;;24.91;36.52;100167.28;4288968;33;33895;-67
2023/08/11 02:16:01;;;;;;;3.35;2.05;;;;;;;24.90;36.64;100165.59;4265325;33;33369;-68
2023/08/11 02:18:28;;;;;;;4.62;2.37;;;;;;;24.90;36.74;100162.87;4275764;33;33243;-67
2023/08/11 02:20:56;;;;;;;4.43;2.12;;;;;;;24.90;36.72;100163.75;4263829;33;33795;-67
2023/08/11 02:23:24;;;;;;;5.68;2.17;;;;;;;24.90;36.61;100160.16;4252322;33;33865;-67
2023/08/11 02:25:51;;;;;;;3.22;2.00;;;;;;;24.89;36.56;100163.94;4263975;33;32823;-67
2023/08/11 02:28:19;;;;;;;3.83;2.00;;;;;;;24.90;36.63;100158.28;4252348;33;32945;-67
2023/08/11 02:30:48;;;;;;;2.95;2.00;;;;;;;24.90;36.65;100162.87;4288639;33;34607;-68
2023/08/11 02:33:18;;;;;;;4.35;2.10;;;;;;;24.88;36.67;100163.13;4263992;33;33626;-68
2023/08/11 02:35:45;;;;;;;4.75;2.25;;;;;;;24.91;36.74;100164.56;4276045;33;34718;-68
2023/08/11 02:38:16;;;;;;;4.93;2.30;;;;;;;24.90;36.69;100162.87;4263749;33;33871;-67
2023/08/11 02:40:43;;;;;;;4.30;2.40;;;;;;;24.90;36.76;100162.87;4275791;33;34483;-67
2023/08/11 02:43:11;;;;;;;4.03;2.20;;;;;;;24.90;36.76;100165.59;4275721;33;34327;-68
2023/08/11 02:45:39;;;;;;;3.70;1.98;;;;;;;24.88;36.80;100162.28;4265492;33;33159;-68
2023/08/11 02:48:07;;;;;;;4.72;2.10;;;;;;;24.89;36.81;100167.50;4266487;33;32818;-67
2023/08/11 02:50:34;;;;;;;3.75;2.30;;;;;;;24.88;36.77;100163.13;4278055;33;34057;-68
2023/08/11 02:53:04;;;;;;;4.28;2.10;;;;;;;24.87;36.80;100161.44;4266290;33;32911;-67
2023/08/11 02:55:32;;;;;;;4.70;2.15;;;;;;;24.88;36.74;100156.81;4267115;33;34184;-68
2023/08/11 02:57:59;;;;;;;4.07;2.35;;;;;;;24.87;36.79;100164.19;4266597;33;33745;-68
2023/08/11 03:00:28;;;;;;;4.03;2.53;;;;;;;24.87;36.77;100157.88;4289771;33;33615;-68
2023/08/11 03:02:56;;;;;;;4.82;2.40;;;;;;;24.87;36.68;100168.81;4289950;33;33850;-67
2023/08/11 03:05:24;;;;;;;4.80;2.45;;;;;;;24.86;36.85;100169.88;4278334;33;33602;-67
2023/08/11 03:07:53;;;;;;;4.07;2.15;;;;;;;24.86;36.79;100172.59;4277951;33;33782;-67
2023/08/11 03:10:21;;;;;;;4.10;1.90;;;;;;;24.85;36.79;100170.91;4303034;33;33895;-67
2023/08/11 03:12:49;;;;;;;3.47;2.28;;;;;;;24.85;36.76;100176.37;4290273;33;34543;-67
2023/08/11 03:15:17;;;;;;;6.25;2.20;;;;;;;24.84;36.77;100169.25;4278007;33;33191;-67
2023/08/11 03:17:44;;;;;;;4.95;2.08;;;;;;;24.83;36.71;100171.16;4278327;33;34050;-67
2023/08/11 03:20:12;;;;;;;4.00;2.20;;;;;;;24.83;36.76;100171.16;4278099;33;33498;-67
2023/08/11 03:22:42;;;;;;;4.32;2.17;;;;;;;24.83;36.80;100170.31;4278271;33;33638;-68
2023/08/11 03:25:11;;;;;;;3.37;1.87;;;;;;;24.84;36.82;100174.72;4290122;33;33277;-67
2023/08/11 03:27:41;;;;;;;4.10;2.28;;;;;;;24.83;36.88;100170.31;4289921;33;33638;-67
2023/08/11 03:30:11;;;;;;;4.62;2.35;;;;;;;24.84;36.86;100174.72;4289827;33;33033;-67
2023/08/11 03:32:39;;;;;;;3.87;1.87;;;;;;;24.82;37.01;100176.84;4265440;33;32971;-67
2023/08/11 03:35:08;;;;;;;4.95;2.40;;;;;;;24.83;36.74;100183.97;4266010;33;32468;-67
2023/08/11 03:37:37;;;;;;;4.07;2.30;;;;;;;24.82;36.76;100190.50;4290346;33;33942;-68
2023/08/11 03:40:09;;;;;;;4.18;2.35;;;;;;;24.81;36.73;100180.63;4289679;33;33856;-68
2023/08/11 03:42:37;;;;;;;5.18;2.15;;;;;;;24.80;36.77;100178.94;4301567;33;34645;-67
2023/08/11 03:45:05;;;;;;;5.25;2.30;;;;;;;24.80;36.74;100174.31;4277699;33;32293;-67
2023/08/11 03:47:34;;;;;;;3.47;2.33;;;;;;;24.80;36.78;100178.94;4276533;33;32763;-67
2023/08/11 03:50:02;;;;;;;4.47;2.30;;;;;;;24.80;36.69;100182.50;4275487;33;34044;-67
2023/08/11 03:52:30;;;;;;;3.53;2.12;;;;;;;24.80;36.72;100184.41;4288287;33;34142;-67
2023/08/11 03:54:58;;;;;;;4.43;2.35;;;;;;;24.79;36.66;100185.47;4275472;33;33491;-67
2023/08/11 03:57:26;;;;;;;7.68;2.05;;;;;;;24.78;36.74;100198.28;4274979;33;32728;-67
2023/08/11 03:59:54;;;;;;;3.08;1.70;;;;;;;24.78;36.77;100186.53;4289378;33;34697;-67
2023/08/11 04:02:21;;;;;;;3.75;2.03;;;;;;;24.78;36.76;100192.84;4277752;33;34669;-68
2023/08/11 04:04:49;;;;;;;3.80;2.00;;;;;;;24.78;36.70;100192.84;4277934;33;32780;-68
2023/08/11 04:07:17;;;;;;;4.05;2.20;;;;;;;24.77;36.77;100193.06;4266273;33;33832;-68
2023/08/11 04:09:46;;;;;;;5.07;2.15;;;;;;;24.77;36.76;100188.44;4289553;33;33071;-67
2023/08/11 04:12:14;;;;;;;5.50;2.20;;;;;;;24.77;36.79;100199.34;4302743;33;34623;-67
2023/08/11 04:14:42;;;;;;;3.95;2.55;;;;;;;24.79;36.74;100201.84;4277716;33;33342;-68
2023/08/11 04:17:13;;;;;;;8.25;2.58;;;;;;;24.77;36.86;100195.78;4289205;33;34008;-68
2023/08/11 04:19:41;;;;;;;4.05;2.35;;;;;;;24.78;36.72;100205.66;4289902;33;33942;-68
2023/08/11 04:22:09;;;;;;;3.75;2.40;;;;;;;24.75;36.76;100209.66;4302558;33;33894;-68
2023/08/11 04:24:37;;;;;;;4.37;2.22;;;;;;;24.76;36.93;100211.34;4289110;33;32309;-67
2023/08/11 04:27:05;;;;;;;6.22;2.40;;;;;;;24.76;36.90;100213.19;4302502;33;33449;-67
2023/08/11 04:29:33;;;;;;;5.20;2.40;;;;;;;24.75;36.89;100209.66;4277237;33;32846;-68
2023/08/11 04:32:04;;;;;;;4.47;2.37;;;;;;;24.76;36.90;100222.25;4302424;33;33852;-67
2023/08/11 04:34:33;;;;;;;4.97;2.40;;;;;;;24.76;36.80;100218.66;4302449;33;34174;-67
2023/08/11 04:37:01;;;;;;;4.60;2.08;;;;;;;24.75;36.95;100219.72;4277337;33;32808;-67
2023/08/11 04:39:36;;;;;;;3.87;2.20;;;;;;;24.75;37.01;100214.28;4266533;33;34566;-67
2023/08/11 04:42:05;;;;;;;3.78;2.10;;;;;;;24.75;36.92;100214.28;4289511;33;33669;-68
2023/08/11 04:44:33;;;;;;;6.45;2.53;;;;;;;24.74;36.85;100215.34;4291244;33;33508;-67
2023/08/11 04:47:01;;;;;;;4.90;2.12;;;;;;;24.73;36.88;100217.22;4307016;33;34627;-67
2023/08/11 04:49:29;;;;;;;4.37;2.10;;;;;;;24.74;36.89;100218.06;4282242;33;32139;-68
2023/08/11 04:51:57;;;;;;;7.28;2.40;;;;;;;24.73;37.13;100228.16;4293717;33;33324;-68
2023/08/11 04:54:24;;;;;;;5.55;2.42;;;;;;;24.73;37.22;100230.06;4307058;33;33324;-68
2023/08/11 04:56:52;;;;;;;6.05;2.20;;;;;;;24.74;37.15;100237.16;4269947;33;33830;-68
2023/08/11 04:59:20;;;;;;;4.87;2.30;;;;;;;24.72;37.12;100233.84;4306981;33;33693;-68
2023/08/11 05:01:48;;;;;;;3.83;2.28;;;;;;;24.72;37.12;100237.41;4281908;33;33393;-69
2023/08/11 05:04:16;;;;;;;5.22;2.42;;;;;;;24.72;37.22;100237.41;4281826;33;32807;-68
2023/08/11 05:06:44;;;;;;;4.97;2.22;;;;;;;24.73;37.14;100238.22;4281482;33;32929;-68
2023/08/11 05:09:12;;;;;;;3.62;2.08;;;;;;;24.72;37.16;100248.31;4281666;33;32797;-67
2023/08/11 05:11:40;;;;;;;4.37;2.33;;;;;;;24.71;37.18;100251.25;4293567;33;32504;-67
2023/08/11 05:14:07;;;;;;;4.25;2.30;;;;;;;24.71;37.13;100249.34;4269726;33;32193;-67
2023/08/11 05:16:35;;;;;;;4.43;2.40;;;;;;;24.72;37.21;100250.22;4293360;33;32573;-67
2023/08/11 05:19:04;;;;;;;5.12;2.33;;;;;;;24.71;37.27;100249.34;4293488;33;34737;-67
2023/08/11 05:21:32;;;;;;;4.47;2.58;;;;;;;24.71;37.28;100251.25;4281706;33;33951;-68
2023/08/11 05:23:59;;;;;;;4.53;2.35;;;;;;;24.71;37.35;100253.97;4281364;33;33571;-67
2023/08/11 05:26:27;;;;;;;4.37;2.50;;;;;;;24.71;37.28;100260.28;4293399;33;33551;-67
2023/08/11 05:28:55;;;;;;;4.55;2.10;;;;;;;24.72;37.18;100261.13;4293352;33;34050;-68
2023/08/11 05:31:23;;;;;;;4.15;2.50;;;;;;;24.72;37.25;100258.41;4281132;33;32535;-68
2023/08/11 05:33:52;;;;;;;4.65;2.45;;;;;;;24.71;37.20;100267.63;4293237;33;32407;-69
2023/08/11 05:36:20;;;;;;;6.77;2.93;;;;;;;24.72;37.42;100263.87;4293355;33;33619;-68
2023/08/11 05:38:47;;;;;;;5.50;2.28;;;;;;;24.72;37.46;100261.13;4293160;33;33833;-67
2023/08/11 05:41:15;;;;;;;4.95;2.40;;;;;;;24.72;37.59;100267.44;4293268;33;34150;-67
2023/08/11 05:43:42;;;;;;;5.22;2.45;;;;;;;24.71;37.62;100259.44;4280908;33;34183;-68
2023/08/11 05:46:10;;;;;;;6.57;2.33;;;;;;;24.72;37.52;100266.59;4265341;33;33826;-68
2023/08/11 05:48:38;;;;;;;5.87;2.50;;;;;;;24.73;37.53;100257.34;4281232;33;34377;-67
2023/08/11 05:51:06;;;;;;;5.65;2.15;;;;;;;24.72;37.62;100256.50;4269359;33;33956;-68
2023/08/11 05:53:34;;;;;;;4.05;2.30;;;;;;;24.71;37.60;100262.16;4292671;33;33435;-68
2023/08/11 05:56:02;;;;;;;9.65;2.53;;;;;;;24.71;37.70;100257.53;4279112;33;34616;-68
2023/08/11 05:58:30;;;;;;;4.60;2.50;;;;;;;24.71;37.67;100264.91;4267365;33;34820;-67
2023/08/11 06:00:58;;;;;;;3.87;2.15;;;;;;;24.73;37.63;100262.78;4276135;33;33982;-68
2023/08/11 06:03:30;;;;;;;3.80;2.45;;;;;;;24.72;37.78;100266.59;4288810;33;33377;-68
2023/08/11 06:06:07;;;;;;;4.45;2.35;;;;;;;24.71;37.81;100264.91;4267034;33;34002;-68
2023/08/11 06:08:35;;;;;;;5.22;2.10;;;;;;;24.72;37.86;100274.78;4278830;33;32831;-68
2023/08/11 06:11:03;;;;;;;4.70;2.10;;;;;;;24.72;37.92;100275.59;4277735;33;33830;-68
2023/08/11 06:13:31;;;;;;;4.43;1.90;;;;;;;24.72;37.88;100272.03;4288048;33;33274;-68
2023/08/11 06:15:58;;;;;;;2.75;1.90;;;;;;;24.72;37.95;100283.78;4303481;33;33867;-68
2023/08/11 06:18:26;;;;;;;3.58;2.00;;;;;;;24.73;38.01;100290.09;4303174;33;33527;-68
2023/08/11 06:20:54;;;;;;;4.32;2.33;;;;;;;24.72;38.20;100285.69;4278704;33;34036;-68
2023/08/11 06:23:22;;;;;;;5.30;2.30;;;;;;;24.73;38.16;100287.34;4266698;33;32737;-68
2023/08/11 06:25:53;;;;;;;4.32;2.17;;;;;;;24.73;38.23;100276.44;4267214;33;32709;-68
2023/08/11 06:28:20;;;;;;;4.47;2.40;;;;;;;24.72;38.29;100275.59;4290027;33;32572;-69
2023/08/11 06:30:49;;;;;;;4.20;2.17;;;;;;;24.73;38.18;100282.72;4289660;33;35135;-68
2023/08/11 06:33:16;;;;;;;4.62;2.30;;;;;;;24.75;38.25;100286.06;4302153;33;33245;-68
2023/08/11 06:35:44;;;;;;;3.83;2.42;;;;;;;24.75;38.32;100282.50;4289968;33;32076;-68
2023/08/11 06:38:12;;;;;;;3.97;2.33;;;;;;;24.75;38.35;100288.78;4289975;33;32860;-68
2023/08/11 06:40:39;;;;;;;3.80;2.30;;;;;;;24.76;38.47;100287.75;4278231;33;34644;-68
2023/08/11 06:43:07;;;;;;;4.18;2.10;;;;;;;24.75;38.49;100285.22;4290051;33;31936;-67
2023/08/11 06:45:35;;;;;;;3.67;2.25;;;;;;;24.76;38.49;100295.06;4301626;33;34702;-68
2023/08/11 06:48:03;;;;;;;4.18;2.15;;;;;;;24.76;38.46;100290.47;4252316;33;33122;-68
2023/08/11 06:50:30;;;;;;;5.22;2.50;;;;;;;24.75;38.41;100290.69;4264042;33;33958;-68
2023/08/11 06:52:58;;;;;;;6.45;2.60;;;;;;;24.77;38.50;100296.78;4264027;33;33198;-68
2023/08/11 06:55:27;;;;;;;4.47;2.22;;;;;;;24.76;38.61;100295.06;4285762;33;33867;-68
2023/08/11 06:57:54;;;;;;;3.33;2.10;;;;;;;24.76;38.60;100303.25;4278061;33;33950;-68
2023/08/11 07:00:23;;;;;;;5.60;2.30;;;;;;;24.77;38.68;100300.34;4301759;33;33583;-68
2023/08/11 07:02:50;;;;;;;3.45;2.10;;;;;;;24.78;38.75;100295.72;4290014;33;33358;-68
2023/08/11 07:05:18;;;;;;;4.35;2.40;;;;;;;24.78;38.85;100306.62;4289975;33;35201;-67
2023/08/11 07:07:46;;;;;;;6.05;2.42;;;;;;;24.79;38.89;100294.63;4276780;33;33990;-69
2023/08/11 07:10:14;;;;;;;6.43;2.58;;;;;;;24.77;38.89;100307.69;4278064;33;33957;-68
2023/08/11 07:12:41;;;;;;;5.32;2.47;;;;;;;24.78;38.88;100304.72;4278074;33;34035;-68
2023/08/11 07:15:09;;;;;;;4.65;2.22;;;;;;;24.79;38.92;100297.38;4254428;33;32678;-68
2023/08/11 07:17:37;;;;;;;7.47;2.28;;;;;;;24.79;38.98;100300.94;4278040;33;32967;-68
2023/08/11 07:20:05;;;;;;;4.68;2.22;;;;;;;24.79;39.01;100305.56;4278032;33;33611;-68
2023/08/11 07:22:33;;;;;;;5.70;2.33;;;;;;;24.80;39.02;100310.78;4302850;33;34265;-68
2023/08/11 07:25:01;;;;;;;5.25;2.60;;;;;;;24.79;39.07;100300.94;4278125;33;34634;-68
2023/08/11 07:27:28;;;;;;;4.15;2.47;;;;;;;24.81;39.05;100301.56;4277920;33;32758;-69
2023/08/11 07:29:56;;;;;;;4.10;2.30;;;;;;;24.83;39.07;100301.31;4254412;33;32786;-69
2023/08/11 07:32:24;;;;;;;8.38;2.50;;;;;;;24.83;39.14;100307.63;4301574;33;34122;-69
2023/08/11 07:34:51;;;;;;;4.50;2.40;;;;;;;24.84;39.19;100306.56;4277776;33;32448;-68
2023/08/11 07:37:19;;;;;;;4.78;2.30;;;;;;;24.84;39.15;100305.72;4277789;33;33809;-69
2023/08/11 07:39:47;;;;;;;5.10;2.70;;;;;;;24.85;39.32;100301.91;4265270;33;33220;-69
2023/08/11 07:42:14;;;;;;;7.18;2.53;;;;;;;24.86;39.51;100300.88;4301156;33;33392;-69
2023/08/11 07:44:43;;;;;;;5.25;2.35;;;;;;;24.88;39.59;100299.59;4301125;33;34724;-68
2023/08/11 07:47:10;;;;;;;4.25;2.65;;;;;;;24.91;39.85;100312.81;4295048;33;33985;-69
2023/08/11 07:49:38;;;;;;;4.95;2.40;;;;;;;24.94;40.05;100311.50;4289239;33;34592;-70
2023/08/11 07:52:06;;;;;;;5.68;2.45;;;;;;;24.97;40.07;100316.53;4289139;33;34136;-70
2023/08/11 07:54:35;;;;;;;5.20;3.00;;;;;;;24.98;40.17;100314.63;4301103;33;34586;-68
2023/08/11 07:57:03;;;;;;;5.55;2.65;;;;;;;24.99;40.12;100313.56;4265803;33;32756;-69
2023/08/11 07:59:31;;;;;;;5.82;2.78;;;;;;;25.03;40.07;100321.06;4289103;33;33502;-68
2023/08/11 08:01:59;;;;;;;8.48;3.55;;;;;;;25.02;40.02;100319.41;4289437;33;34413;-69
2023/08/11 08:04:27;;;;;;;6.82;2.95;;;;;;;25.02;40.04;100313.94;4288893;33;33929;-68
2023/08/11 08:06:54;;;;;;;4.40;2.50;;;;;;;25.03;40.06;100317.50;4288744;33;33053;-69
2023/08/11 08:09:22;;;;;;;4.25;2.30;;;;;;;25.03;40.10;100318.34;4277638;33;33588;-68
2023/08/11 08:11:50;;;;;;;5.80;2.70;;;;;;;25.04;40.19;100317.31;4288645;33;33246;-70
2023/08/11 08:14:18;;;;;;;4.28;2.45;;;;;;;25.05;40.40;100320.88;4301309;33;33473;-68
2023/08/11 08:16:45;;;;;;;5.40;2.90;;;;;;;25.06;40.53;100317.91;4277553;33;33053;-70
2023/08/11 08:19:14;;;;;;;5.70;2.70;;;;;;;25.10;40.55;100323.78;4288800;33;33886;-68
2023/08/11 08:21:42;;;;;;;4.33;2.43;;;;;;;25.09;40.39;100325.69;4301561;33;33431;-69
2023/08/11 08:24:11;;;;;;;5.78;2.40;;;;;;;25.11;40.37;100323.56;4301579;33;34005;-69
2023/08/11 08:26:38;;;;;;;7.22;2.42;;;;;;;25.11;40.35;100325.44;4277158;33;35165;-71
2023/08/11 08:29:06;;;;;;;5.90;2.72;;;;;;;25.11;40.51;100329.00;4265831;33;33518;-70
2023/08/11 08:31:34;;;;;;;5.28;2.47;;;;;;;25.12;40.57;100324.38;4302331;33;32932;-70
2023/08/11 08:34:02;;;;;;;5.22;2.75;;;;;;;25.14;40.70;100325.00;4288867;33;32607;-69
2023/08/11 08:36:31;;;;;;;7.78;2.87;;;;;;;25.14;40.68;100322.28;4277335;33;33799;-70
2023/08/11 08:38:58;;;;;;;5.32;2.75;;;;;;;25.14;40.75;100319.56;4277142;33;33808;-70
2023/08/11 08:41:28;;;;;;;5.25;2.55;;;;;;;25.14;40.69;100325.84;4265229;33;33545;-69
2023/08/11 08:43:56;;;;;;;5.57;3.08;;;;;;;25.13;40.72;100321.44;4277661;33;33573;-70
2023/08/11 08:46:28;;;;;;;4.00;2.30;;;;;;;25.15;40.81;100315.75;4265526;33;33008;-71
2023/08/11 08:49:22;;;;;;;4.87;2.55;;;;;;;25.15;41.10;100316.59;4265412;33;32978;-70
2023/08/11 08:51:49;;;;;;;5.80;2.50;;;;;;;25.21;41.20;100319.47;4289400;33;34368;-68
2023/08/11 08:54:18;;;;;;;6.12;2.78;;;;;;;25.17;41.05;100321.81;4288715;33;34692;-68
2023/08/11 08:56:45;;;;;;;5.57;2.90;;;;;;;25.17;41.05;100335.47;4273821;33;33983;-71
2023/08/11 08:59:13;;;;;;;7.28;2.80;;;;;;;25.17;41.06;100333.56;4276955;33;33390;-71
2023/08/11 09:01:41;;;;;;;5.62;2.78;;;;;;;25.19;41.15;100328.72;4288477;33;34046;-68
2023/08/11 09:04:08;;;;;;;5.95;2.50;;;;;;;25.19;41.17;100325.16;4276674;33;32934;-68
2023/08/11 09:06:36;;;;;;;7.12;2.42;;;;;;;25.19;41.18;100326.00;4288228;33;33788;-70
2023/08/11 09:09:05;;;;;;;6.80;2.72;;;;;;;25.21;41.30;100323.03;4276975;33;33987;-69
2023/08/11 09:11:32;;;;;;;4.40;2.55;;;;;;;25.19;41.29;100326.00;4264621;33;33066;-72
2023/08/11 09:14:04;;;;;;;4.57;2.55;;;;;;;25.22;41.31;100323.88;4276406;33;33675;-72
2023/08/11 09:16:39;;;;;;;4.20;2.83;;;;;;;25.22;41.44;100323.88;4277024;33;34049;-72
2023/08/11 09:19:10;;;;;;;6.47;2.62;;;;;;;25.25;41.48;100328.87;4275889;33;34028;-72
2023/08/11 09:21:40;;;;;;;7.03;3.25;;;;;;;25.25;41.55;100328.87;4276324;33;33179;-69
2023/08/11 09:24:17;;;;;;;4.75;2.28;;;;;;;25.23;41.42;100314.59;4265031;33;34282;-73
2023/08/11 09:26:52;;;;;;;5.03;2.33;;;;;;;25.24;41.43;100319.03;4277248;33;34089;-71
2023/08/11 09:29:19;;;;;;;5.22;2.90;;;;;;;25.24;41.46;100328.06;4277885;33;34245;-72
2023/08/11 09:31:49;;;;;;;4.43;2.72;;;;;;;25.25;41.55;100317.97;4265746;33;32454;-70
2023/08/11 09:34:17;;;;;;;7.37;3.20;;;;;;;25.25;41.58;100323.44;4277973;33;33303;-72
2023/08/11 09:36:46;;;;;;;4.75;2.62;;;;;;;25.26;41.57;100323.19;4278029;33;34782;-71
2023/08/11 09:39:14;;;;;;;4.50;2.60;;;;;;;25.28;41.59;100317.53;4252291;33;33466;-71
2023/08/11 09:41:43;;;;;;;4.72;2.60;;;;;;;25.31;41.53;100317.03;4275979;33;33568;-71
2023/08/11 09:44:11;;;;;;;5.30;2.62;;;;;;;25.30;41.45;100310.75;4287991;33;33813;-71
2023/08/11 09:46:40;;;;;;;4.23;2.37;;;;;;;25.29;41.44;100317.28;4287854;33;35023;-71
2023/08/11 09:49:08;;;;;;;7.40;2.92;;;;;;;25.35;41.28;100318.28;4287849;33;34522;-71
2023/08/11 09:51:36;;;;;;;4.50;2.80;;;;;;;25.34;41.20;100308.41;4275892;33;33999;-70
2023/08/11 09:54:07;;;;;;;6.07;2.70;;;;;;;25.33;41.17;100309.47;4287689;33;34150;-72
2023/08/11 09:56:36;;;;;;;4.18;2.80;;;;;;;25.36;41.14;100303.53;4308647;33;33887;-70
2023/08/11 09:59:05;;;;;;;4.87;2.72;;;;;;;25.40;40.93;100310.22;4278625;33;34673;-71
2023/08/11 10:01:34;;;;;;;5.20;2.60;;;;;;;25.42;40.77;100308.94;4278412;33;33326;-69
2023/08/11 10:04:10;;;;;;;4.28;2.70;;;;;;;25.42;40.71;100311.69;4289806;33;32922;-69
2023/08/11 10:06:39;;;;;;;5.03;2.62;;;;;;;25.39;40.82;100311.28;4290394;33;34775;-70
2023/08/11 10:09:11;;;;;;;4.05;2.42;;;;;;;25.37;40.85;100311.53;4290221;33;33611;-72
2023/08/11 10:11:38;;;;;;;4.75;2.47;;;;;;;25.38;40.89;100315.09;4290200;33;33454;-71
2023/08/11 10:14:06;;;;;;;7.20;2.62;;;;;;;25.41;40.89;100314.63;4289856;33;33971;-69
2023/08/11 10:16:34;;;;;;;4.40;2.70;;;;;;;25.38;40.87;100305.00;4277041;33;33701;-69
2023/08/11 10:19:01;;;;;;;4.45;2.65;;;;;;;25.38;40.82;100302.28;4278049;33;33854;-69
2023/08/11 10:21:29;;;;;;;4.75;2.50;;;;;;;25.41;40.99;100300.97;4277702;33;33122;-70
2023/08/11 10:23:57;;;;;;;5.40;2.50;;;;;;;25.43;40.94;100296.12;4278095;33;33937;-68
2023/08/11 16:07:07;;;;;;;4.45;1.60;;;;;;;25.65;31.37;100267.25;4300095;33;34306;-67
2023/08/11 16:09:36;;;;;;;7.40;2.60;;;;;;;25.64;31.52;100262.84;4301881;33;34500;-67
2023/08/11 16:12:04;;;;;;;4.60;1.75;;;;;;;25.65;31.47;100267.25;4275681;33;33443;-68
2023/08/11 16:14:32;;;;;;;6.60;1.67;;;;;;;25.66;31.54;100268.09;4301666;33;33976;-66
2023/08/11 16:17:01;;;;;;;3.35;1.98;;;;;;;25.66;31.60;100268.94;4301158;33;33221;-66
2023/08/11 16:19:32;;;;;;;4.00;1.60;;;;;;;25.67;31.58;100265.13;4301425;33;33139;-67
2023/08/11 16:22:00;;;;;;;2.65;1.60;;;;;;;25.68;31.56;100266.78;4289589;33;33275;-68
2023/08/11 16:24:28;;;;;;;4.97;1.50;;;;;;;25.69;31.43;100268.47;4298068;33;34653;-67
2023/08/11 16:26:55;;;;;;;3.78;1.90;;;;;;;25.69;31.42;100265.75;4294923;33;33075;-67
2023/08/11 16:29:23;;;;;;;2.00;1.50;;;;;;;25.69;31.48;100260.28;4306073;33;32761;-67
2023/08/11 16:31:51;;;;;;;3.42;1.75;;;;;;;25.69;31.47;100264.88;4305811;33;32569;-68
2023/08/11 16:34:22;;;;;;;6.12;1.98;;;;;;;25.69;31.51;100265.75;4312156;33;33962;-68
2023/08/11 16:36:49;;;;;;;5.10;1.55;;;;;;;25.69;31.62;100268.47;4314992;33;33800;-67
2023/08/11 16:39:17;;;;;;;4.28;1.95;;;;;;;25.69;31.71;100265.75;4330921;33;33833;-67
2023/08/11 16:41:45;;;;;;;5.00;1.52;;;;;;;25.69;31.78;100268.47;4317836;33;33239;-68
2023/08/11 16:44:12;;;;;;;4.93;1.98;;;;;;;25.72;31.83;100263.59;4313738;33;34839;-67
2023/08/11 16:46:40;;;;;;;3.53;1.60;;;;;;;25.70;31.95;100264.69;4316512;33;33878;-67
2023/08/11 16:49:08;;;;;;;3.50;1.90;;;;;;;25.70;32.05;100267.41;4316450;33;34931;-68
2023/08/11 16:51:37;;;;;;;6.43;1.92;;;;;;;25.69;32.24;100260.28;4316611;33;33362;-66
2023/08/11 16:54:04;;;;;;;4.03;2.10;;;;;;;25.70;32.34;100267.41;4305405;33;33732;-67
2023/08/11 16:56:32;;;;;;;4.95;1.92;;;;;;;25.70;32.42;100264.69;4304459;33;33675;-67
2023/08/11 16:59:01;;;;;;;3.28;1.70;;;;;;;25.72;32.49;100269.06;4301477;33;33537;-67
2023/08/11 17:01:28;;;;;;;4.40;2.08;;;;;;;25.70;32.59;100270.13;4306597;33;34130;-67
2023/08/11 17:03:56;;;;;;;4.47;2.10;;;;;;;25.72;32.71;100264.44;4316698;33;33827;-67
2023/08/11 17:06:24;;;;;;;6.78;1.87;;;;;;;25.72;32.75;100275.38;4299737;33;34095;-68
2023/08/11 17:08:52;;;;;;;7.18;1.80;;;;;;;25.72;32.76;100275.38;4300446;33;33901;-67
2023/08/11 17:11:19;;;;;;;9.23;2.22;;;;;;;25.71;32.95;100270.97;4306563;33;33032;-68